Airfield :
LOGIN :

Register | Disclaimer

   EN    FR    IT 

 










Legend :    VFR   Marginal VFR   IFR   Intensive IFR   Very Intensive IFR
Visi :
Ceiling :
>= 8 km
>= 3000ft
5 to 8 km
1000 to 3000 ft
1500m to 5 km
500 to 1000 ft
800 to 1500m
200 to 500 ft
< 800m
< 200 ft
Symbols :   Thunderstorms  Fog  Heavy snow  Heavy precipitations  Wind > 20 kt
SIGMETs :     Misc.  Thunderstorms  Icing  Turbulence  Mountain Waves  Volcanic Ashes







- Airport Elevation : 138 ft
- IATA code : BIO


LEBB - Bilbao

CURRENT METAR :
  • 170530Z 13003KT 100V160 CAVOK 16/14 Q1021 NOSIG

EXPIRED METARs :
  • 170500Z VRB02KT CAVOK 16/15 Q1021 NOSIG
  • 170430Z VRB02KT CAVOK 16/15 Q1021 NOSIG
  • 170400Z 09002KT CAVOK 16/15 Q1021 NOSIG
  • 170330Z 13003KT 100V160 CAVOK 16/15 Q1021 NOSIG
  • 170300Z VRB01KT CAVOK 16/15 Q1021 NOSIG

TAF TAF LEBB
Valid from the 17 at 06:00 until the 18 at 06:00 UTC


170500Z 1706/1806 VRB03KT CAVOK TX30/1715Z TN15/1706Z
BECMG 1710/1714 30010KT
BECMG 1718/1722 VRB03KT
PROB40
TEMPO 1803/1806 3000 BR BKN010
No reported NOTAMs for that airfield.



MET'MAP, your aeronautical weather chart ! - Copyright ORBIFLY December 2007 - Disclaimer

ORBIFLY MET'MAP TEAM :

Programming & Development : Alexandra Zaïnal
Concept & Development : Baudouin d'Aumeries
Co-Development & Prog : Marc-Olivier Méhu
Technical & hardware support : Manuel Goepfert

Contact : metmap@orbifly.com




SOURCES & CREDITS :

   NOAA